Time;durP1;ratioP1;P1;durP2;ratioP2;P2;SDS_P1;SDS_P2;PMS_P1;PMS_P2;Temp;Humidity;BMP_temperature;BMP_pressure;BME280_temperature;BME280_humidity;BME280_pressure;Samples;Min_cycle;Max_cycle;Signal;HPM_P1;HPM_P2
2022/03/26 00:01:23;;;;;;;252.13;122.15;;;;;;;;;;4994666;28;20026;-77
2022/03/26 00:03:49;;;;;;;261.55;123.38;;;;;;;;;;4994796;28;20040;-77
2022/03/26 00:06:15;;;;;;;259.05;124.00;;;;;;;;;;4995569;28;20031;-77
2022/03/26 00:08:41;;;;;;;264.30;124.47;;;;;;;;;;4994511;28;20161;-77
2022/03/26 00:11:07;;;;;;;268.45;123.57;;;;;;;;;;4996554;28;20443;-76
2022/03/26 00:13:33;;;;;;;251.93;120.85;;;;;;;;;;4998838;28;20027;-76
2022/03/26 00:16:01;;;;;;;268.65;124.88;;;;;;;;;;4992724;28;20025;-76
2022/03/26 00:18:27;;;;;;;270.75;123.15;;;;;;;;;;4994009;28;20046;-75
2022/03/26 00:20:53;;;;;;;279.58;125.75;;;;;;;;;;4993867;28;20066;-76
2022/03/26 00:23:19;;;;;;;259.77;120.68;;;;;;;;;;4994006;28;20026;-76
2022/03/26 00:25:45;;;;;;;259.00;121.60;;;;;;;;;;4992235;28;20026;-77
2022/03/26 00:28:11;;;;;;;261.00;122.60;;;;;;;;;;4993672;28;20088;-77
2022/03/26 00:30:37;;;;;;;263.05;122.05;;;;;;;;;;4993412;28;20113;-77
2022/03/26 00:33:03;;;;;;;261.50;120.95;;;;;;;;;;4994812;28;20034;-78
2022/03/26 00:35:29;;;;;;;256.23;118.68;;;;;;;;;;4994472;28;20030;-77
2022/03/26 00:37:55;;;;;;;256.48;119.28;;;;;;;;;;4997844;28;20038;-79
2022/03/26 00:40:21;;;;;;;252.48;118.90;;;;;;;;;;4996999;28;20193;-77
2022/03/26 00:42:47;;;;;;;251.38;119.47;;;;;;;;;;4995850;28;20483;-78
2022/03/26 00:45:13;;;;;;;256.38;117.18;;;;;;;;;;4995633;28;20046;-78
2022/03/26 00:47:39;;;;;;;256.88;118.47;;;;;;;;;;4995367;28;20467;-77
2022/03/26 00:50:05;;;;;;;259.83;118.55;;;;;;;;;;4994219;28;20061;-77
2022/03/26 00:52:31;;;;;;;255.27;117.72;;;;;;;;;;4998598;28;20037;-77
2022/03/26 00:54:57;;;;;;;255.13;118.43;;;;;;;;;;4993376;28;20030;-77
2022/03/26 00:57:23;;;;;;;254.63;121.13;;;;;;;;;;4993243;28;20096;-77
2022/03/26 00:59:49;;;;;;;257.83;121.65;;;;;;;;;;4992938;28;20137;-75
2022/03/26 01:02:16;;;;;;;246.07;119.18;;;;;;;;;;4992329;28;20022;-76
2022/03/26 01:04:42;;;;;;;255.32;118.22;;;;;;;;;;4993143;28;20030;-76
2022/03/26 01:07:08;;;;;;;250.30;118.50;;;;;;;;;;4991855;28;20464;-76
2022/03/26 01:09:34;;;;;;;251.18;121.00;;;;;;;;;;4991797;28;20042;-74
2022/03/26 01:12:00;;;;;;;261.02;120.30;;;;;;;;;;4993218;28;20026;-76
2022/03/26 01:14:26;;;;;;;254.27;121.25;;;;;;;;;;4994492;28;20117;-76
2022/03/26 01:16:51;;;;;;;258.95;121.53;;;;;;;;;;5002600;28;20010;-76
2022/03/26 01:19:17;;;;;;;256.75;119.78;;;;;;;;;;5016434;28;20082;-77
2022/03/26 01:21:44;;;;;;;259.63;123.07;;;;;;;;;;5000503;28;20046;-76
2022/03/26 01:24:10;;;;;;;268.38;123.40;;;;;;;;;;5005550;28;20030;-75
2022/03/26 01:26:36;;;;;;;262.33;124.78;;;;;;;;;;5007154;28;20034;-75
2022/03/26 01:29:02;;;;;;;262.42;124.07;;;;;;;;;;4999740;28;20053;-76
2022/03/26 01:31:29;;;;;;;264.58;123.68;;;;;;;;;;4996918;28;20019;-76
2022/03/26 01:33:55;;;;;;;262.02;122.40;;;;;;;;;;4997688;28;20072;-75
2022/03/26 01:36:22;;;;;;;254.07;120.63;;;;;;;;;;4998685;28;20022;-77
2022/03/26 01:38:48;;;;;;;274.05;124.28;;;;;;;;;;5000039;28;20486;-76
2022/03/26 01:41:14;;;;;;;249.00;119.43;;;;;;;;;;5002172;28;20080;-76
2022/03/26 01:43:41;;;;;;;262.25;120.00;;;;;;;;;;5001474;28;20125;-77
2022/03/26 01:46:07;;;;;;;253.43;119.85;;;;;;;;;;5002715;28;20019;-77
2022/03/26 01:48:33;;;;;;;263.08;122.80;;;;;;;;;;5000702;28;20120;-76
2022/03/26 01:51:14;;;;;;;267.45;121.97;;;;;;;;;;5000561;28;20030;-76
2022/03/26 01:53:39;;;;;;;263.13;122.18;;;;;;;;;;4996731;28;20030;-77
2022/03/26 01:56:06;;;;;;;269.40;122.72;;;;;;;;;;4997995;28;20106;-75
2022/03/26 01:58:32;;;;;;;253.70;120.68;;;;;;;;;;4997840;28;20022;-76
2022/03/26 02:00:58;;;;;;;253.27;119.22;;;;;;;;;;4997804;28;20026;-77
2022/03/26 02:03:24;;;;;;;254.02;120.45;;;;;;;;;;4997695;28;20038;-76
2022/03/26 02:05:52;;;;;;;252.77;119.93;;;;;;;;;;4995380;28;20022;-76
2022/03/26 02:08:18;;;;;;;259.73;120.95;;;;;;;;;;4996939;28;20019;-76
2022/03/26 02:10:44;;;;;;;258.90;120.50;;;;;;;;;;4996296;28;20525;-76
2022/03/26 02:13:10;;;;;;;253.70;119.75;;;;;;;;;;4995504;28;20034;-76
2022/03/26 02:15:37;;;;;;;256.00;117.78;;;;;;;;;;4996941;28;20026;-77
2022/03/26 02:18:03;;;;;;;263.65;121.38;;;;;;;;;;4997221;28;20053;-77
2022/03/26 02:20:30;;;;;;;255.88;119.72;;;;;;;;;;4996877;28;20090;-77
2022/03/26 02:22:56;;;;;;;251.85;116.03;;;;;;;;;;4995320;28;20030;-77
2022/03/26 02:25:22;;;;;;;252.38;120.32;;;;;;;;;;4996231;28;20022;-76
2022/03/26 02:27:48;;;;;;;258.48;118.70;;;;;;;;;;4996595;28;20391;-76
2022/03/26 02:30:15;;;;;;;244.27;118.22;;;;;;;;;;4998460;28;20509;-76
2022/03/26 02:32:40;;;;;;;242.85;115.63;;;;;;;;;;4999198;28;20026;-76
2022/03/26 02:35:07;;;;;;;245.15;118.78;;;;;;;;;;5002387;28;20030;-76
2022/03/26 02:37:33;;;;;;;248.07;117.40;;;;;;;;;;5005942;28;20034;-77
2022/03/26 02:40:00;;;;;;;243.20;115.13;;;;;;;;;;4997973;28;20030;-77
2022/03/26 02:42:26;;;;;;;244.75;115.78;;;;;;;;;;4995894;28;20026;-75
2022/03/26 02:44:52;;;;;;;246.38;117.25;;;;;;;;;;4995699;28;20373;-76
2022/03/26 02:47:19;;;;;;;248.38;118.03;;;;;;;;;;4995727;28;20077;-76
2022/03/26 02:49:45;;;;;;;256.45;115.80;;;;;;;;;;4995260;28;20023;-76
2022/03/26 02:52:11;;;;;;;252.25;114.28;;;;;;;;;;5001389;28;20036;-76
2022/03/26 02:54:37;;;;;;;242.93;113.57;;;;;;;;;;4996734;28;20077;-77
2022/03/26 02:57:03;;;;;;;240.60;114.00;;;;;;;;;;4995619;28;20365;-77
2022/03/26 02:59:29;;;;;;;249.40;113.55;;;;;;;;;;4995450;28;20090;-76
2022/03/26 03:01:55;;;;;;;229.80;110.55;;;;;;;;;;4996230;28;20101;-76
2022/03/26 03:04:21;;;;;;;244.82;113.03;;;;;;;;;;4996112;28;20076;-76
2022/03/26 03:06:47;;;;;;;240.45;111.97;;;;;;;;;;4996185;28;20080;-76
2022/03/26 03:09:13;;;;;;;240.85;114.13;;;;;;;;;;4994633;28;20027;-76
2022/03/26 03:11:39;;;;;;;242.13;110.35;;;;;;;;;;4995214;28;20041;-75
2022/03/26 03:14:06;;;;;;;252.05;113.32;;;;;;;;;;4996918;28;20034;-77
2022/03/26 03:16:32;;;;;;;245.65;115.35;;;;;;;;;;4996589;28;20030;-77
2022/03/26 03:18:58;;;;;;;248.18;113.95;;;;;;;;;;4994851;28;20026;-76
2022/03/26 03:21:24;;;;;;;252.63;113.13;;;;;;;;;;4995697;28;20133;-76
2022/03/26 03:23:50;;;;;;;242.50;112.32;;;;;;;;;;4995845;28;20022;-76
2022/03/26 03:26:16;;;;;;;246.27;113.03;;;;;;;;;;4995725;28;20444;-76
2022/03/26 03:28:42;;;;;;;242.00;112.85;;;;;;;;;;4995838;28;20390;-76
2022/03/26 03:31:08;;;;;;;238.02;112.18;;;;;;;;;;4996056;28;20471;-76
2022/03/26 03:33:34;;;;;;;246.45;112.75;;;;;;;;;;4996445;28;20034;-76
2022/03/26 03:36:00;;;;;;;238.77;111.22;;;;;;;;;;4994499;28;20037;-75
2022/03/26 03:38:27;;;;;;;242.57;110.50;;;;;;;;;;4995388;28;20113;-77
2022/03/26 03:40:53;;;;;;;232.65;108.85;;;;;;;;;;4995949;28;20018;-77
2022/03/26 03:43:19;;;;;;;240.70;109.75;;;;;;;;;;4996696;28;20081;-78
2022/03/26 03:45:47;;;;;;;240.82;110.05;;;;;;;;;;4995364;28;20018;-77
2022/03/26 03:48:13;;;;;;;247.90;109.75;;;;;;;;;;4996477;28;20066;-77
2022/03/26 03:50:39;;;;;;;234.10;109.13;;;;;;;;;;4994717;28;20034;-78
2022/03/26 03:53:06;;;;;;;240.77;110.85;;;;;;;;;;4995917;28;20022;-78
2022/03/26 03:55:32;;;;;;;231.18;108.78;;;;;;;;;;4996094;28;20030;-78
2022/03/26 03:57:58;;;;;;;231.38;107.75;;;;;;;;;;4994646;28;20395;-77
2022/03/26 04:00:24;;;;;;;230.95;106.50;;;;;;;;;;4995610;28;20022;-79
2022/03/26 04:02:50;;;;;;;229.55;103.75;;;;;;;;;;4996210;28;20024;-78
2022/03/26 04:05:16;;;;;;;240.85;108.40;;;;;;;;;;4995702;28;20032;-80
2022/03/26 04:07:43;;;;;;;245.00;108.68;;;25.50;39.00;;;;;;4995659;28;20077;-78
2022/03/26 04:10:09;;;;;;;234.48;108.63;;;;;;;;;;4993839;28;20179;-78
2022/03/26 04:12:39;;;;;;;232.32;104.03;;;;;;;;;;4995105;28;20022;-77
2022/03/26 04:15:06;;;;;;;242.75;108.10;;;;;;;;;;4995959;28;20038;-78
2022/03/26 04:17:32;;;;;;;233.02;106.72;;;;;;;;;;4995072;28;20361;-79
2022/03/26 04:19:58;;;;;;;240.70;107.45;;;;;;;;;;4996375;28;20037;-77
2022/03/26 04:22:24;;;;;;;238.77;107.55;;;;;;;;;;5001340;28;20026;-79
2022/03/26 04:24:50;;;;;;;238.80;107.07;;;;;;;;;;4994886;28;20086;-78
2022/03/26 04:27:16;;;;;;;227.77;104.60;;;;;;;;;;4994290;28;20026;-78
2022/03/26 04:29:42;;;;;;;244.70;109.07;;;;;;;;;;4993923;28;20502;-79
2022/03/26 04:32:10;;;;;;;245.80;108.35;;;;;;;;;;4994256;28;20368;-78
2022/03/26 04:34:36;;;;;;;237.80;107.32;;;;;;;;;;4993924;28;20018;-78
2022/03/26 04:37:02;;;;;;;232.80;110.15;;;;;;;;;;4994866;28;20059;-78
2022/03/26 04:39:28;;;;;;;244.27;113.30;;;;;;;;;;4994939;28;20034;-77
2022/03/26 04:41:54;;;;;;;242.30;108.20;;;;;;;;;;4993321;28;20080;-76
2022/03/26 04:44:20;;;;;;;254.25;114.95;;;;;;;;;;4996486;28;20022;-79
2022/03/26 04:46:46;;;;;;;243.93;111.00;;;;;;;;;;4998265;28;20438;-77
2022/03/26 04:49:12;;;;;;;255.48;115.82;;;;;;;;;;4994606;28;20550;-76
2022/03/26 04:51:38;;;;;;;249.05;113.20;;;;;;;;;;4994356;28;20030;-76
2022/03/26 04:54:04;;;;;;;259.08;117.35;;;;;;;;;;4995294;28;20059;-77
2022/03/26 04:56:30;;;;;;;262.58;114.55;;;;;;;;;;4995935;28;20388;-77
2022/03/26 04:58:57;;;;;;;259.65;114.57;;;;;;;;;;5004049;28;20030;-76
2022/03/26 05:01:23;;;;;;;259.48;116.32;;;;;;;;;;5005126;28;20053;-76
2022/03/26 05:03:49;;;;;;;264.48;116.70;;;;;;;;;;4998196;28;20018;-77
2022/03/26 05:06:16;;;;;;;261.20;118.13;;;;;;;;;;4997321;28;20033;-77
2022/03/26 05:08:42;;;;;;;258.85;115.07;;;;;;;;;;4999521;28;20062;-77
2022/03/26 05:11:08;;;;;;;269.92;117.25;;;;;;;;;;4994203;28;20061;-77
2022/03/26 05:13:33;;;;;;;253.05;116.35;;;;;;;;;;4994919;28;20030;-77
2022/03/26 05:16:00;;;;;;;267.40;118.93;;;;;;;;;;4999027;28;20018;-81
2022/03/26 05:18:26;;;;;;;254.73;115.60;;;;;;;;;;5017839;28;20078;-79
2022/03/26 05:20:55;;;;;;;264.83;119.65;;;;;;;;;;5006409;28;20074;-77
2022/03/26 05:23:21;;;;;;;256.83;118.68;;;;;;;;;;4993919;28;20022;-78
2022/03/26 05:25:47;;;;;;;270.77;119.25;;;;;;;;;;4995291;28;20551;-77
2022/03/26 05:28:13;;;;;;;255.93;117.63;;;;;;;;;;4995485;28;20101;-77
2022/03/26 05:30:40;;;;;;;262.30;119.65;;;;;;;;;;4994865;28;20068;-77
2022/03/26 05:33:06;;;;;;;270.25;120.05;;;;;;;;;;4994498;28;20031;-76
2022/03/26 05:35:31;;;;;;;262.35;118.78;;;;;;;;;;4992860;28;20326;-77
2022/03/26 05:37:57;;;;;;;267.95;121.07;;;;;;;;;;4994272;28;20023;-77
2022/03/26 05:40:23;;;;;;;257.85;118.93;;;;;;;;;;4992619;28;20019;-77
2022/03/26 05:42:50;;;;;;;275.25;122.50;;;;;;;;;;4993841;28;20045;-76
2022/03/26 05:45:17;;;;;;;258.95;118.95;;;;;;;;;;4994026;28;20093;-78
2022/03/26 05:47:43;;;;;;;272.65;121.60;;;;;;;;;;4995203;28;20038;-76
2022/03/26 05:50:12;;;;;;;271.85;125.97;;;;;;;;;;4992319;28;20029;-76
2022/03/26 05:52:38;;;;;;;283.25;123.78;;;;;;;;;;4994585;28;20030;-76
2022/03/26 05:55:05;;;;;;;260.08;119.72;;;;;;;;;;4993585;28;20046;-77
2022/03/26 05:57:30;;;;;;;267.67;123.43;;;;;;;;;;4994245;28;20030;-76
2022/03/26 05:59:56;;;;;;;282.20;124.60;;;;;;;;;;4994602;28;20037;-78
2022/03/26 06:02:22;;;;;;;275.70;127.45;;;;;;;;;;4994452;28;20050;-77
2022/03/26 06:04:48;;;;;;;272.35;124.63;;;;;;;;;;4994118;28;20535;-77
2022/03/26 06:07:15;;;;;;;276.00;123.63;;;;;;;;;;4994232;28;20081;-76
2022/03/26 06:09:40;;;;;;;271.83;123.88;;;;;;;;;;5016282;23;20158;-75
2022/03/26 06:12:07;;;;;;;270.67;124.53;;;;;;;;;;4994994;28;20511;-78
2022/03/26 06:14:34;;;;;;;272.15;124.07;;;;;;;;;;4996226;28;20431;-76
2022/03/26 06:17:00;;;;;;;274.42;122.25;;;;;;;;;;4995823;28;20050;-79
2022/03/26 06:19:26;;;;;;;256.48;121.00;;;;;;;;;;4996456;28;20034;-77
2022/03/26 06:21:52;;;;;;;261.17;119.65;;;;;;;;;;4998043;28;20027;-76
2022/03/26 06:24:18;;;;;;;262.73;117.97;;;;;;;;;;4998771;28;20022;-75
2022/03/26 06:26:45;;;;;;;259.42;119.47;;;;;;;;;;4999574;28;20391;-74
2022/03/26 06:29:12;;;;;;;260.30;116.63;;;;;;;;;;4996074;28;20527;-74
2022/03/26 06:31:38;;;;;;;255.15;117.47;;;;;;;;;;4996528;28;20396;-74
2022/03/26 06:34:04;;;;;;;240.52;113.53;;;;;;;;;;4995389;28;20023;-75
2022/03/26 06:36:30;;;;;;;257.80;119.28;;;;;;;;;;4995220;28;20037;-73
2022/03/26 06:38:56;;;;;;;247.05;116.63;;;;;;;;;;4978071;28;20110;-75
2022/03/26 06:41:22;;;;;;;258.30;114.70;;;;;;;;;;4995377;28;20436;-74
2022/03/26 06:43:48;;;;;;;249.65;113.32;;;;;;;;;;4995617;28;20073;-74
2022/03/26 06:46:14;;;;;;;239.35;112.70;;;;;;;;;;4995184;28;20034;-75
2022/03/26 06:48:40;;;;;;;244.02;116.20;;;;;;;;;;4996209;28;20030;-74
2022/03/26 06:51:08;;;;;;;241.32;114.38;;;;;;;;;;4995395;28;20038;-74
2022/03/26 06:53:34;;;;;;;237.93;110.75;;;;;;;;;;4995488;28;20365;-76
2022/03/26 06:56:00;;;;;;;237.73;108.97;;;;;;;;;;4977782;28;20062;-74
2022/03/26 06:58:26;;;;;;;237.07;111.55;;;;;;;;;;4995599;28;20026;-74
2022/03/26 07:00:52;;;;;;;237.57;107.85;;;;;;;;;;4995112;28;20030;-75
2022/03/26 07:03:18;;;;;;;230.02;107.57;;;;;;;;;;4994960;28;20022;-73
2022/03/26 07:05:44;;;;;;;221.85;105.25;;;;;;;;;;4994502;28;20038;-75
2022/03/26 07:08:11;;;;;;;217.07;103.28;;;;;;;;;;4977633;28;20045;-74
2022/03/26 07:10:39;;;;;;;207.80;100.35;;;;;;;;;;4994791;28;20445;-74
2022/03/26 07:13:06;;;;;;;209.45;98.88;;;;;;;;;;4994594;28;20030;-73
2022/03/26 07:15:32;;;;;;;210.05;100.90;;;;;;;;;;4994240;28;20018;-77
2022/03/26 07:17:58;;;;;;;211.20;102.43;;;;;;;;;;4996238;28;20464;-77
2022/03/26 07:20:25;;;;;;;204.07;98.10;;;;;;;;;;4995129;28;20089;-76
2022/03/26 07:22:51;;;;;;;199.95;96.05;;;;;;;;;;4996151;28;20018;-76
2022/03/26 07:25:16;;;;;;;208.05;94.88;;;;;;;;;;4996856;28;20603;-75
2022/03/26 07:27:42;;;;;;;189.52;93.38;;;;;;;;;;4997426;28;20106;-79
2022/03/26 07:30:09;;;;;;;186.27;90.03;;;;;;;;;;5004106;28;20098;-77
2022/03/26 07:32:35;;;;;;;183.50;88.18;;;;;;;;;;4998416;28;20045;-77
2022/03/26 07:35:01;;;;;;;189.15;88.82;;;;;;;;;;4995131;28;20041;-75
2022/03/26 07:37:27;;;;;;;170.68;84.28;;;;;;;;;;4994485;28;20105;-75
2022/03/26 07:39:53;;;;;;;178.23;86.30;;;;;;;;;;4996357;28;20077;-75
2022/03/26 07:42:19;;;;;;;177.50;85.38;;;;;;;;;;4995585;28;20022;-76
2022/03/26 07:44:45;;;;;;;183.07;84.13;;;;;;;;;;4995035;28;20031;-78
2022/03/26 07:47:11;;;;;;;166.45;79.78;;;;;;;;;;4995269;28;20505;-74
2022/03/26 07:49:37;;;;;;;164.48;77.85;;;;;;;;;;4995065;28;20027;-77
2022/03/26 07:52:03;;;;;;;154.52;75.53;;;;;;;;;;4995524;28;20022;-74
2022/03/26 07:54:29;;;;;;;151.27;73.47;;;;;;;;;;4994025;28;20034;-76
2022/03/26 07:56:55;;;;;;;151.55;72.50;;;;;;;;;;4994777;28;20034;-75
2022/03/26 07:59:21;;;;;;;141.98;70.40;;;;;;;;;;4994991;28;20038;-76
2022/03/26 08:01:47;;;;;;;136.65;69.40;;;;;;;;;;4995992;28;20034;-76
2022/03/26 08:04:14;;;;;;;125.57;62.92;;;;;;;;;;4995081;28;20109;-78
2022/03/26 08:06:40;;;;;;;126.85;62.17;;;;;;;;;;4995545;28;20061;-77
2022/03/26 08:09:06;;;;;;;121.93;60.75;;;;;;;;;;4994695;28;20473;-75
2022/03/26 08:11:32;;;;;;;117.43;58.42;;;;;;;;;;4994901;28;20049;-77
2022/03/26 08:13:57;;;;;;;108.75;55.17;;;;;;;;;;4995241;28;20130;-78
2022/03/26 08:16:23;;;;;;;105.93;54.13;;;;;;;;;;4994843;28;20665;-77
2022/03/26 08:18:49;;;;;;;99.13;51.28;;;;;;;;;;4995858;28;20026;-77
2022/03/26 08:21:17;;;;;;;107.70;49.10;;;;;;;;;;4996953;28;20117;-78
2022/03/26 08:23:43;;;;;;;98.95;47.08;;;;;;;;;;4998058;28;20026;-77
2022/03/26 08:26:26;;;;;;;92.55;47.50;;;;;;;;;;4997889;28;20061;-75
2022/03/26 08:28:53;;;;;;;90.97;45.88;;;;;;;;;;5010978;28;20050;-75
2022/03/26 08:31:20;;;;;;;91.90;46.13;;;;;;;;;;5007073;28;20344;-77
2022/03/26 08:33:46;;;;;;;90.80;46.78;;;;;;;;;;5014791;28;20678;-77
2022/03/26 08:36:12;;;;;;;88.13;45.70;;;;;;;;;;5013779;28;20036;-77
2022/03/26 08:38:38;;;;;;;89.95;46.55;;;;;;;;;;5017667;28;20025;-78
2022/03/26 08:41:05;;;;;;;101.43;46.65;;;;;;;;;;5017633;28;20029;-79
2022/03/26 08:43:31;;;;;;;92.47;46.85;;;;;;;;;;5017891;28;20020;-78
2022/03/26 08:45:57;;;;;;;90.07;45.85;;;;;;;;;;5016162;28;20021;-77
2022/03/26 08:48:23;;;;;;;89.80;46.88;;;;;;;;;;5021653;28;20049;-75
2022/03/26 08:50:49;;;;;;;83.78;44.20;;;;;;;;;;5015040;28;20034;-75
2022/03/26 08:53:15;;;;;;;81.85;40.83;;;;;;;;;;5016035;28;20045;-77
2022/03/26 08:55:41;;;;;;;77.80;41.72;;;;;;;;;;5013490;28;20117;-76
2022/03/26 08:58:07;;;;;;;91.32;49.17;;;;;;;;;;5013602;28;20103;-76
2022/03/26 09:00:34;;;;;;;76.70;40.85;;;;;;;;;;5013893;28;20479;-77
2022/03/26 09:03:00;;;;;;;76.40;38.28;;;;;;;;;;5013038;28;20033;-76
2022/03/26 09:05:26;;;;;;;62.13;32.65;;;8.60;99.90;;;;;;5012623;28;20080;-76
2022/03/26 09:07:52;;;;;;;63.63;31.65;;;15.60;99.90;;;;;;5014555;28;20022;-76
2022/03/26 09:10:17;;;;;;;56.15;31.85;;;15.30;99.90;;;;;;5014994;28;20029;-76
2022/03/26 09:12:43;;;;;;;53.03;27.90;;;15.30;99.90;;;;;;5013399;28;20026;-72
2022/03/26 09:15:08;;;;;;;51.08;26.45;;;15.20;99.90;;;;;;5014387;28;20030;-75
2022/03/26 09:17:36;;;;;;;49.63;25.17;;;15.20;99.90;;;;;;5013363;28;20040;-76
2022/03/26 09:20:02;;;;;;;47.15;26.80;;;15.10;99.90;;;;;;5012126;28;20032;-77
2022/03/26 09:22:28;;;;;;;56.78;25.25;;;15.00;99.90;;;;;;4994179;28;20079;-77
2022/03/26 09:24:53;;;;;;;47.00;23.98;;;14.90;99.90;;;;;;5012087;28;20034;-76
2022/03/26 09:27:19;;;;;;;55.97;25.40;;;14.80;99.90;;;;;;5013719;28;20037;-77
2022/03/26 09:29:45;;;;;;;52.90;25.15;;;14.80;99.90;;;;;;5011623;28;20026;-76
2022/03/26 09:32:11;;;;;;;46.00;23.48;;;14.80;99.90;;;;;;5010337;28;20075;-77
2022/03/26 09:34:36;;;;;;;44.97;23.92;;;15.00;99.90;;;;;;5012883;28;20026;-78
2022/03/26 09:37:02;;;;;;;50.15;22.83;;;15.50;99.90;;;;;;5012945;28;20026;-76
2022/03/26 09:39:28;;;;;;;43.70;21.38;;;15.90;99.90;;;;;;5011572;28;20034;-77
2022/03/26 09:41:55;;;;;;;39.38;21.48;;;16.10;99.90;;;;;;5012461;28;20093;-75
2022/03/26 09:44:22;;;;;;;39.00;20.35;;;16.50;99.90;;;;;;5014107;28;20025;-76
2022/03/26 09:46:48;;;;;;;34.22;17.85;;;16.40;99.90;;;;;;5019160;28;20018;-76
2022/03/26 09:49:13;;;;;;;35.88;18.50;;;16.30;99.90;;;;;;5018936;28;20051;-78
2022/03/26 09:51:40;;;;;;;31.27;17.05;;;16.00;99.90;;;;;;5001695;28;20041;-77
2022/03/26 09:54:05;;;;;;;34.22;17.23;;;15.80;99.90;;;;;;5017594;28;20458;-77
2022/03/26 09:56:32;;;;;;;33.38;16.45;;;15.80;99.90;;;;;;5015550;28;20030;-79
2022/03/26 09:58:58;;;;;;;37.65;18.10;;;15.60;99.90;;;;;;5016190;28;20025;-75
2022/03/26 10:01:25;;;;;;;33.35;18.33;;;15.50;99.90;;;;;;5017089;28;20041;-76
2022/03/26 10:04:10;;;;;;;32.78;16.73;;;15.40;99.90;;;;;;5015923;28;20022;-75
2022/03/26 10:06:36;;;;;;;;;;;15.30;99.90;;;;;;5017042;28;20683;-77
2022/03/26 10:09:03;;;;;;;35.33;15.90;;;15.10;99.90;;;;;;5017529;28;19959;-77
2022/03/26 10:11:33;;;;;;;32.25;16.55;;;15.10;99.90;;;;;;5027429;28;20021;-75
2022/03/26 10:13:59;;;;;;;31.08;16.30;;;15.10;99.90;;;;;;5023745;28;20029;-75
2022/03/26 10:16:26;;;;;;;32.25;16.38;;;15.00;99.90;;;;;;5019478;28;20033;-77
2022/03/26 10:18:51;;;;;;;35.38;15.52;;;15.00;99.90;;;;;;5020311;28;20026;-78
2022/03/26 10:21:21;;;;;;;37.60;15.65;;;14.90;99.90;;;;;;5021796;28;20030;-76
2022/03/26 10:23:49;;;;;;;29.58;14.63;;;14.90;99.90;;;;;;5017920;28;20018;-78
2022/03/26 10:26:23;;;;;;;34.08;16.08;;;15.00;99.90;;;;;;5017318;28;20025;-76
2022/03/26 10:28:54;;;;;;;30.55;15.73;;;14.80;99.90;;;;;;5016714;28;20026;-76
2022/03/26 10:34:10;;;;;;;29.10;15.00;;;14.80;99.90;;;;;;5018428;28;20033;-76
2022/03/26 10:36:38;;;;;;;22.10;12.98;;;14.80;99.90;;;;;;5017893;28;20030;-76
2022/03/26 10:39:06;;;;;;;30.73;14.15;;;14.90;99.90;;;;;;5016940;28;20018;-77
2022/03/26 10:41:33;;;;;;;30.70;14.48;;;14.90;99.90;;;;;;4998398;28;20040;-76
2022/03/26 10:44:10;;;;;;;28.27;14.80;;;15.00;99.90;;;;;;5015217;28;20033;-73
2022/03/26 10:46:56;;;;;;;25.50;14.88;;;15.00;99.90;;;;;;4996736;28;20018;-73
2022/03/26 10:49:30;;;;;;;28.30;14.18;;;15.00;99.90;;;;;;4996985;28;20053;-75
2022/03/26 10:52:03;;;;;;;25.70;14.63;;;15.00;99.90;;;;;;5014718;28;20026;-76
2022/03/26 10:54:31;;;;;;;34.40;17.65;;;15.10;99.90;;;;;;5016174;28;20037;-76
2022/03/26 10:57:01;;;;;;;42.08;22.05;;;15.20;99.90;;;;;;5014734;28;20088;-76
2022/03/26 10:59:27;;;;;;;32.22;15.48;;;15.20;99.90;;;;;;5016037;28;20088;-76
2022/03/26 11:01:53;;;;;;;29.05;14.50;;;15.30;99.90;;;;;;5015341;28;20021;-76
2022/03/26 11:04:19;;;;;;;35.63;14.55;;;15.40;99.90;;;;;;5016621;28;20037;-78
2022/03/26 11:06:47;;;;;;;37.33;15.50;;;15.70;99.90;;;;;;5018706;28;20026;-76
2022/03/26 11:09:15;;;;;;;34.63;16.30;;;15.80;99.90;;;;;;5018905;28;20018;-78
2022/03/26 11:11:41;;;;;;;39.75;16.95;;;15.70;99.90;;;;;;5016620;28;20029;-77
2022/03/26 11:14:15;;;;;;;35.47;17.13;;;15.70;99.90;;;;;;5017629;28;20033;-77
2022/03/26 11:16:40;;;;;;;32.20;16.80;;;15.60;99.90;;;;;;5017510;28;20065;-77
2022/03/26 11:19:20;;;;;;;43.63;18.00;;;15.60;99.90;;;;;;5016685;28;20022;-76
2022/03/26 11:22:04;;;;;;;30.83;16.17;;;15.50;99.90;;;;;;5016772;28;20033;-77
2022/03/26 11:25:01;;;;;;;35.13;16.77;;;15.20;99.90;;;;;;5018829;28;20029;-77
2022/03/26 11:27:45;;;;;;;31.63;15.98;;;15.10;99.90;;;;;;5000886;28;20766;-76
2022/03/26 11:30:48;;;;;;;33.50;17.35;;;15.00;99.90;;;;;;5016132;28;20022;-75
2022/03/26 11:33:15;;;;;;;37.85;15.80;;;14.90;99.90;;;;;;5017530;28;20072;-75
2022/03/26 11:35:56;;;;;;;32.50;15.27;;;14.80;99.90;;;;;;5015145;28;20060;-75
2022/03/26 11:38:23;;;;;;;36.13;16.05;;;14.80;99.90;;;;;;5014902;28;20025;-76
2022/03/26 11:40:53;;;;;;;26.90;15.20;;;14.80;99.90;;;;;;5018072;28;20475;-77
2022/03/26 11:43:44;;;;;;;32.58;15.43;;;14.70;99.90;;;;;;5014794;28;20018;-75
2022/03/26 11:52:12;;;;;;;31.85;15.82;;;14.70;99.90;;;;;;5020180;28;20068;-77
2022/03/26 11:54:38;;;;;;;31.33;16.65;;;14.80;99.90;;;;;;4998662;28;20030;-75
2022/03/26 11:57:21;;;;;;;35.80;16.20;;;14.90;99.90;;;;;;5013841;28;20041;-76
2022/03/26 11:59:48;;;;;;;33.17;15.93;;;14.90;99.90;;;;;;5015080;28;20049;-77
2022/03/26 12:02:23;;;;;;;33.13;14.48;;;14.90;99.90;;;;;;5015079;28;20022;-80
2022/03/26 12:04:59;;;;;;;30.17;14.75;;;14.90;99.90;;;;;;5016190;28;20030;-80
2022/03/26 12:07:30;;;;;;;29.17;14.63;;;14.90;99.90;;;;;;5020425;28;20022;-78
2022/03/26 12:10:11;;;;;;;30.75;14.82;;;14.90;99.90;;;;;;5036525;23;20439;-73
2022/03/26 12:13:00;;;;;;;27.17;13.68;;;14.90;99.90;;;;;;4996008;28;20029;-76
2022/03/26 12:15:28;;;;;;;33.15;17.17;;;14.90;99.90;;;;;;5013658;28;20076;-73
2022/03/26 12:18:09;;;;;;;26.45;14.27;;;15.10;99.90;;;;;;5014420;28;20022;-74
2022/03/26 12:20:38;;;;;;;26.83;12.50;;;15.20;99.90;;;;;;5014325;28;20037;-74
2022/03/26 12:23:19;;;;;;;28.73;12.60;;;15.30;99.90;;;;;;5014959;28;20022;-74
2022/03/26 12:25:54;;;;;;;26.00;12.63;;;15.50;99.90;;;;;;5012566;28;20075;-73
2022/03/26 12:28:25;;;;;;;21.63;10.43;;;15.80;99.90;;;;;;5013558;28;20022;-74
2022/03/26 12:30:53;;;;;;;22.88;10.63;;;16.00;99.90;;;;;;4996751;28;20467;-75
2022/03/26 12:33:20;;;;;;;29.48;10.98;;;16.10;99.90;;;;;;5014939;28;20030;-75
2022/03/26 12:35:47;;;;;;;20.63;9.60;;;16.10;99.90;;;;;;5014601;28;20052;-76
2022/03/26 12:38:14;;;;;;;18.40;9.30;;;16.10;99.90;;;;;;5003063;28;20506;-75
2022/03/26 12:40:47;;;;;;;27.55;10.10;;;16.20;99.90;;;;;;4993423;28;20108;-75
2022/03/26 12:43:12;;;;;;;19.70;9.10;;;16.70;99.90;;;;;;4993695;28;20022;-74
2022/03/26 12:45:38;;;;;;;17.15;9.40;;;17.70;99.90;;;;;;4993031;28;20025;-75
2022/03/26 12:48:10;;;;;;;19.55;9.00;;;18.50;99.90;;;;;;4993009;28;20612;-74
2022/03/26 12:50:38;;;;;;;21.08;9.00;;;19.70;99.90;;;;;;4993110;28;20038;-74
2022/03/26 12:53:07;;;;;;;17.52;7.57;;;;;;;;;;4994813;28;20033;-75
2022/03/26 12:55:33;;;;;;;16.13;7.60;;;;;;;;;;4993827;28;20027;-73
2022/03/26 13:00:44;;;;;;;15.13;7.35;;;23.90;99.90;;;;;;4993538;28;20049;-73
2022/03/26 13:03:11;;;;;;;19.73;6.88;;;23.20;98.60;;;;;;4992877;28;20115;-75
2022/03/26 13:05:38;;;;;;;16.63;7.80;;;22.30;99.40;;;;;;4992907;28;20510;-74
2022/03/26 13:08:10;;;;;;;19.35;9.77;;;21.60;99.90;;;;;;4994129;28;20065;-75
2022/03/26 13:10:37;;;;;;;12.20;6.07;;;22.10;99.90;;;;;;4993498;28;20085;-79
2022/03/26 13:13:08;;;;;;;13.50;6.35;;;23.20;99.40;;;;;;4993632;28;20037;-73
2022/03/26 13:15:34;;;;;;;17.55;6.43;;;23.70;96.30;;;;;;4993014;28;20037;-74
2022/03/26 13:18:08;;;;;;;14.95;5.75;;;23.30;96.00;;;;;;4994080;28;20463;-75
2022/03/26 13:20:37;;;;;;;14.88;6.28;;;22.80;96.70;;;;;;4993690;28;20057;-73
2022/03/26 13:23:06;;;;;;;15.05;6.05;;;22.50;96.90;;;;;;4993176;28;20026;-73
2022/03/26 13:25:40;;;;;;;14.73;6.43;;;22.20;97.40;;;;;;4993217;28;20486;-74
2022/03/26 13:28:33;;;;;;;15.00;5.90;;;21.90;97.80;;;;;;4993723;28;20484;-74
2022/03/26 13:30:59;;;;;;;15.48;5.80;;;21.40;98.50;;;;;;4989079;28;20042;-74
2022/03/26 13:33:30;;;;;;;17.13;6.03;;;21.00;99.30;;;;;;4992495;28;20030;-74
2022/03/26 13:35:57;;;;;;;15.60;5.95;;;;;;;;;;4993071;28;20031;-76
2022/03/26 13:38:27;;;;;;;22.30;6.20;;;;;;;;;;4996420;28;20391;-77
2022/03/26 13:40:54;;;;;;;16.25;6.00;;;;;;;;;;4996535;28;20075;-77